Time;durP1;ratioP1;P1;durP2;ratioP2;P2;SDS_P1;SDS_P2;PMS_P1;PMS_P2;Temp;Humidity;BMP_temperature;BMP_pressure;BME280_temperature;BME280_humidity;BME280_pressure;Samples;Min_cycle;Max_cycle;Signal;HPM_P1;HPM_P2
2021/09/05 00:02:25;;;;;;;12.70;8.93;;;;;;;;;;5027429;28;20438;-69
2021/09/05 00:04:51;;;;;;;12.90;7.87;;;;;;;;;;5015425;28;20459;-75
2021/09/05 00:07:17;;;;;;;12.50;8.60;;;;;;;;;;5018708;28;20895;-72
2021/09/05 00:09:44;;;;;;;11.20;8.33;;;;;;;;;;5017967;28;20415;-73
2021/09/05 00:12:10;;;;;;;10.47;8.47;;;;;;;;;;5023743;28;20429;-73
2021/09/05 00:14:36;;;;;;;12.40;7.73;;;;;;;;;;5027363;28;20453;-74
2021/09/05 00:17:02;;;;;;;13.30;8.57;;;;;;;;;;5019331;28;20572;-72
2021/09/05 00:19:28;;;;;;;11.40;8.40;;;;;;;;;;5023153;28;20453;-70
2021/09/05 00:21:54;;;;;;;11.33;8.40;;;;;;;;;;5016903;28;20448;-74
2021/09/05 00:24:21;;;;;;;11.50;8.20;;;;;;;;;;5022007;28;20428;-69
2021/09/05 00:26:47;;;;;;;10.97;8.37;;;;;;;;;;5015885;28;20507;-72
2021/09/05 00:29:16;;;;;;;10.10;7.67;;;;;;;;;;5024817;28;20783;-73
2021/09/05 00:31:43;;;;;;;11.90;8.73;;;;;;;;;;5018791;28;20457;-74
2021/09/05 00:34:09;;;;;;;11.80;7.57;;;;;;;;;;5025595;28;20774;-71
2021/09/05 00:36:35;;;;;;;13.30;7.77;;;;;;;;;;5025882;28;20426;-73
2021/09/05 00:39:01;;;;;;;12.43;8.13;;;;;;;;;;5022110;28;20447;-71
2021/09/05 00:41:27;;;;;;;11.23;7.90;;;;;;;;;;5023323;28;20421;-71
2021/09/05 00:44:00;;;;;;;10.27;8.90;;;;;;;;;;5019193;28;20414;-74
2021/09/05 00:46:26;;;;;;;10.27;7.97;;;;;;;;;;5025821;28;20424;-74
2021/09/05 00:48:52;;;;;;;12.27;7.43;;;;;;;;;;5026710;28;20535;-71
2021/09/05 00:51:18;;;;;;;8.43;7.43;;;;;;;;;;5021020;28;20422;-74
2021/09/05 00:53:46;;;;;;;16.63;7.87;;;;;;;;;;5023973;28;20428;-73
2021/09/05 00:56:12;;;;;;;12.97;7.80;;;;;;;;;;5017826;28;20430;-73
2021/09/05 00:58:41;;;;;;;10.30;7.07;;;;;;;;;;5027060;28;20441;-72
2021/09/05 01:01:07;;;;;;;10.27;7.23;;;;;;;;;;5021313;28;20429;-73
2021/09/05 01:03:33;;;;;;;9.03;7.13;;;;;;;;;;5026210;28;20966;-72
2021/09/05 01:05:59;;;;;;;10.63;7.20;;;;;;;;;;5014358;28;20472;-71
2021/09/05 01:08:26;;;;;;;9.73;7.50;;;;;;;;;;5014572;28;20505;-73
2021/09/05 01:10:52;;;;;;;10.43;7.50;;;;;;;;;;5026492;28;20427;-74
2021/09/05 01:13:18;;;;;;;8.87;7.00;;;;;;;;;;5022929;28;20464;-72
2021/09/05 01:15:44;;;;;;;8.77;6.70;;;;;;;;;;5027974;28;20455;-71
2021/09/05 01:18:10;;;;;;;8.67;6.70;;;;;;;;;;5026580;28;20480;-74
2021/09/05 01:20:36;;;;;;;9.60;7.28;;;;;;;;;;5027523;28;20849;-74
2021/09/05 01:23:02;;;;;;;9.48;7.00;;;;;;;;;;5026577;28;20178;-74
2021/09/05 01:25:29;;;;;;;10.02;6.68;;;;;;;;;;5023978;28;20647;-74
2021/09/05 01:27:54;;;;;;;10.82;7.53;;;;;;;;;;5025171;28;20280;-71
2021/09/05 01:30:20;;;;;;;14.23;7.03;;;;;;;;;;5022486;28;20228;-74
2021/09/05 01:32:47;;;;;;;10.10;7.03;;;;;;;;;;5021712;28;20957;-71
2021/09/05 01:35:13;;;;;;;9.90;7.07;;;;;;;;;;5016964;28;20516;-74
2021/09/05 01:37:39;;;;;;;9.02;6.53;;;;;;;;;;5026498;28;20583;-70
2021/09/05 01:40:05;;;;;;;9.40;6.43;;;;;;;;;;5027302;28;20261;-74
2021/09/05 01:42:31;;;;;;;8.57;6.90;;;;;;;;;;5026097;28;20909;-70
2021/09/05 01:44:57;;;;;;;10.02;6.30;;;;;;;;;;5025968;28;20929;-72
2021/09/05 01:47:23;;;;;;;11.70;5.95;;;;;;;;;;5017101;28;20202;-71
2021/09/05 01:49:50;;;;;;;8.40;6.90;;;;;;;;;;5023158;28;20184;-73
2021/09/05 01:52:16;;;;;;;8.60;6.20;;;;;;;;;;5017529;28;20499;-72
2021/09/05 01:54:42;;;;;;;10.68;6.60;;;;;;;;;;5021620;28;20192;-72
2021/09/05 01:57:08;;;;;;;11.05;7.22;;;;;;;;;;5018573;28;20594;-73
2021/09/05 01:59:34;;;;;;;9.20;6.70;;;;;;;;;;5016911;28;20285;-71
2021/09/05 02:02:00;;;;;;;9.73;7.00;;;;;;;;;;5024693;28;20428;-71
2021/09/05 02:04:26;;;;;;;9.20;6.23;;;;;;;;;;5016968;28;20434;-69
2021/09/05 02:06:52;;;;;;;10.00;6.60;;;;;;;;;;5021589;28;20472;-71
2021/09/05 02:09:18;;;;;;;7.80;6.03;;;;;;;;;;5019935;28;20442;-72
2021/09/05 02:11:44;;;;;;;8.98;6.38;;;;;;;;;;5019880;28;20185;-71
2021/09/05 02:14:10;;;;;;;11.30;6.60;;;;;;;;;;5016107;28;20178;-71
2021/09/05 02:16:36;;;;;;;8.73;6.50;;;;;;;;;;5026188;28;20948;-72
2021/09/05 02:19:03;;;;;;;8.70;6.20;;;;;;;;;;5021852;28;20449;-71
2021/09/05 02:21:29;;;;;;;10.53;6.73;;;;;;;;;;5026260;28;21016;-71
2021/09/05 02:23:55;;;;;;;8.50;6.53;;;;;;;;;;5018958;28;20509;-72
2021/09/05 02:26:21;;;;;;;10.87;6.17;;;;;;;;;;5027074;28;20515;-73
2021/09/05 02:28:47;;;;;;;10.48;7.25;;;;;;;;;;5024935;28;20467;-74
2021/09/05 02:31:13;;;;;;;9.10;6.93;;;;;;;;;;5026758;28;20291;-74
2021/09/05 02:33:39;;;;;;;11.70;7.07;;;;;;;;;;5018128;28;20420;-74
2021/09/05 02:36:05;;;;;;;9.63;6.68;;;;;;;;;;5023512;28;20421;-71
2021/09/05 02:38:31;;;;;;;11.00;6.27;;;;;;;;;;5025964;28;20198;-72
2021/09/05 02:40:57;;;;;;;10.93;6.43;;;;;;;;;;5016676;28;20484;-71
2021/09/05 02:43:23;;;;;;;10.50;6.70;;;;;;;;;;5027513;28;20487;-70
2021/09/05 02:45:49;;;;;;;7.88;6.75;;;;;;;;;;5022703;28;20921;-72
2021/09/05 02:48:15;;;;;;;10.33;6.90;;;;;;;;;;5021555;28;20284;-72
2021/09/05 02:50:42;;;;;;;8.40;6.45;;;;;;;;;;5022158;28;20464;-73
2021/09/05 02:53:08;;;;;;;8.63;6.40;;;;;;;;;;5021148;28;20181;-74
2021/09/05 02:55:34;;;;;;;9.40;6.45;;;;;;;;;;5019264;28;20703;-70
2021/09/05 02:58:00;;;;;;;7.35;6.22;;;;;;;;;;5022205;28;20408;-72
2021/09/05 03:00:26;;;;;;;8.00;6.10;;;;;;;;;;5014544;28;20182;-71
2021/09/05 03:02:52;;;;;;;13.13;6.70;;;;;;;;;;5021158;28;20182;-72
2021/09/05 03:05:18;;;;;;;10.52;6.25;;;;;;;;;;5025672;28;20444;-75
2021/09/05 03:07:44;;;;;;;8.95;6.60;;;;;;;;;;5020999;28;20212;-73
2021/09/05 03:10:10;;;;;;;8.20;6.25;;;;;;;;;;5025454;28;20178;-73
2021/09/05 03:12:36;;;;;;;8.80;6.10;;;;;;;;;;5016011;28;20576;-73
2021/09/05 03:15:02;;;;;;;7.00;5.87;;;;;;;;;;5020380;28;20181;-70
2021/09/05 03:17:30;;;;;;;10.13;6.50;;;;;;;;;;5015902;28;20421;-74
2021/09/05 03:19:56;;;;;;;8.32;7.28;;;;;;;;;;5023040;28;20240;-73
2021/09/05 03:22:22;;;;;;;9.32;6.85;;;;;;;;;;5024747;28;20184;-71
2021/09/05 03:24:48;;;;;;;9.23;6.83;;;;;;;;;;5027719;28;20191;-71
2021/09/05 03:27:14;;;;;;;9.17;6.40;;;;;;;;;;5023898;28;20791;-72
2021/09/05 03:29:40;;;;;;;9.33;6.70;;;;;;;;;;5018218;28;20418;-71
2021/09/05 03:32:06;;;;;;;14.50;6.13;;;;;;;;;;5025117;28;20413;-72
2021/09/05 03:34:32;;;;;;;10.40;6.53;;;;;;;;;;5023758;28;20256;-74
2021/09/05 03:36:58;;;;;;;7.70;6.10;;;;;;;;;;5022234;28;20309;-74
2021/09/05 03:39:24;;;;;;;9.73;6.32;;;;;;;;;;5028008;28;20456;-73
2021/09/05 03:41:50;;;;;;;8.43;5.70;;;;;;;;;;5023593;28;20225;-71
2021/09/05 03:44:16;;;;;;;7.43;6.05;;;;;;;;;;5022173;28;20177;-74
2021/09/05 03:46:42;;;;;;;10.67;6.10;;;;;;;;;;5020581;28;20261;-71
2021/09/05 03:49:08;;;;;;;8.82;6.07;;;;;;;;;;5022475;28;20441;-73
2021/09/05 03:51:34;;;;;;;12.53;5.80;;;;;;;;;;5019064;28;20188;-70
2021/09/05 03:54:00;;;;;;;9.47;5.73;;;;;;;;;;5025675;28;20430;-73
2021/09/05 03:56:26;;;;;;;7.87;5.77;;;;;;;;;;5025845;28;20795;-75
2021/09/05 03:58:52;;;;;;;6.47;5.27;;;;;;;;;;5026921;28;20544;-74
2021/09/05 04:01:18;;;;;;;7.40;4.80;;;;;;;;;;5025720;28;20907;-71
2021/09/05 04:03:44;;;;;;;7.50;5.43;;;;;;;;;;5027281;28;20429;-71
2021/09/05 04:06:10;;;;;;;6.37;4.97;;;;;;;;;;5027306;28;20185;-70
2021/09/05 04:08:42;;;;;;;7.77;4.93;;;;;;;;;;5023429;28;20472;-69
2021/09/05 04:11:09;;;;;;;7.55;5.00;;;;;;;;;;5022346;28;20504;-75
2021/09/05 04:13:35;;;;;;;8.50;4.72;;;;;;;;;;5023606;28;20178;-73
2021/09/05 04:16:01;;;;;;;7.40;5.37;;;;;;;;;;5021920;28;20754;-72
2021/09/05 04:18:27;;;;;;;10.73;5.43;;;;;;;;;;5019046;28;20540;-71
2021/09/05 04:20:53;;;;;;;6.93;5.57;;;;;;;;;;5027378;28;20452;-71
2021/09/05 04:23:19;;;;;;;6.80;4.93;;;;;;;;;;5026156;28;20437;-75
2021/09/05 04:25:45;;;;;;;5.78;4.47;;;;;;;;;;5026062;28;20637;-70
2021/09/05 04:28:11;;;;;;;5.70;4.90;;;;;;;;;;5022693;28;20218;-73
2021/09/05 04:30:37;;;;;;;7.15;5.20;;;;;;;;;;5023791;28;20428;-71
2021/09/05 04:33:05;;;;;;;8.77;5.03;;;;;;;;;;5019174;28;20178;-72
2021/09/05 04:35:31;;;;;;;8.13;4.18;;;;;;;;;;5021915;28;20422;-70
2021/09/05 04:37:57;;;;;;;4.60;4.15;;;;;;;;;;5023143;28;20226;-72
2021/09/05 04:40:23;;;;;;;7.13;5.10;;;;;;;;;;5022630;28;20646;-73
2021/09/05 04:42:49;;;;;;;5.32;4.82;;;;;;;;;;5025595;28;20186;-73
2021/09/05 04:45:15;;;;;;;5.15;4.18;;;;;;;;;;5022604;28;20185;-72
2021/09/05 04:47:41;;;;;;;9.13;4.50;;;;;;;;;;5021912;28;20309;-71
2021/09/05 04:50:07;;;;;;;5.90;4.43;;;;;;;;;;5015691;28;20644;-74
2021/09/05 04:52:33;;;;;;;6.05;4.38;;;;;;;;;;5028387;28;20429;-73
2021/09/05 04:55:00;;;;;;;7.10;5.03;;;;;;;;;;5019392;28;20225;-72
2021/09/05 04:57:26;;;;;;;5.88;4.68;;;;;;;;;;5026574;28;20587;-72
2021/09/05 04:59:52;;;;;;;5.70;4.05;;;;;;;;;;5024231;28;20186;-73
2021/09/05 05:02:18;;;;;;;5.00;3.37;;;;;;;;;;5019786;28;20179;-72
2021/09/05 05:04:44;;;;;;;8.65;5.13;;;;;;;;;;5017191;28;20453;-72
2021/09/05 05:07:10;;;;;;;5.27;4.20;;;;;;;;;;5023035;28;20248;-71
2021/09/05 05:09:43;;;;;;;7.50;4.80;;;;;;;;;;5027368;28;20526;-70
2021/09/05 05:12:09;;;;;;;7.07;4.63;;;;;;;;;;5025090;28;20173;-74
2021/09/05 05:14:35;;;;;;;5.88;4.20;;;;;;;;;;5023419;28;20464;-71
2021/09/05 05:17:01;;;;;;;7.90;4.80;;;;;;;;;;5024095;28;20221;-73
2021/09/05 05:19:27;;;;;;;6.93;4.87;;;;;;;;;;5021832;28;20499;-75
2021/09/05 05:21:53;;;;;;;5.20;4.47;;;;;;;;;;5021613;28;20425;-72
2021/09/05 05:24:19;;;;;;;5.90;4.83;;;;;;;;;;5022321;28;20861;-72
2021/09/05 05:26:45;;;;;;;6.70;4.20;;;;;;;;;;5018480;28;20512;-73
2021/09/05 05:29:11;;;;;;;6.00;4.60;;;;;;;;;;5023409;28;20449;-75
2021/09/05 05:31:37;;;;;;;6.50;4.60;;;;;;;;;;5021211;28;20422;-72
2021/09/05 05:34:03;;;;;;;5.95;4.50;;;;;;;;;;5022548;28;20424;-71
2021/09/05 05:36:29;;;;;;;5.05;4.47;;;;;;;;;;5024524;28;20197;-71
2021/09/05 05:38:55;;;;;;;5.72;3.95;;;;;;;;;;5027027;28;20198;-73
2021/09/05 05:41:21;;;;;;;8.40;4.57;;;;;;;;;;5019253;28;20508;-72
2021/09/05 05:43:47;;;;;;;5.00;4.05;;;;;;;;;;5022613;28;20429;-74
2021/09/05 05:46:13;;;;;;;6.55;4.60;;;;;;;;;;5020419;28;20244;-72
2021/09/05 05:48:39;;;;;;;6.05;4.30;;;;;;;;;;5023741;28;20201;-73
2021/09/05 05:51:05;;;;;;;5.70;4.10;;;;;;;;;;5024585;28;20201;-75
2021/09/05 05:53:31;;;;;;;6.30;4.23;;;;;;;;;;5016567;28;20178;-69
2021/09/05 05:55:58;;;;;;;5.93;5.07;;;;;;;;;;5016491;28;20432;-71
2021/09/05 05:58:24;;;;;;;6.53;3.70;;;;;;;;;;5024616;28;20515;-72
2021/09/05 06:00:50;;;;;;;5.15;3.90;;;;;;;;;;5025112;28;20598;-74
2021/09/05 06:03:16;;;;;;;5.07;4.30;;;;;;;;;;5026585;28;20217;-74
2021/09/05 06:05:42;;;;;;;11.33;4.77;;;;;;;;;;5019491;28;20532;-71
2021/09/05 06:08:08;;;;;;;5.00;3.90;;;;;;;;;;5020254;28;20468;-73
2021/09/05 06:10:34;;;;;;;7.65;3.90;;;;;;;;;;5015883;28;20457;-73
2021/09/05 06:13:00;;;;;;;5.87;3.50;;;;;;;;;;5020795;28;20223;-72
2021/09/05 06:15:26;;;;;;;7.13;4.30;;;;;;;;;;5014631;28;20429;-73
2021/09/05 06:17:52;;;;;;;4.80;3.67;;;;;;;;;;5021269;28;20459;-71
2021/09/05 06:20:18;;;;;;;8.33;4.33;;;;;;;;;;5020163;28;20432;-71
2021/09/05 06:22:44;;;;;;;5.25;3.70;;;;;;;;;;5013588;28;20479;-72
2021/09/05 06:25:10;;;;;;;7.50;4.10;;;;;;;;;;5017491;28;20182;-73
2021/09/05 06:27:36;;;;;;;5.80;4.13;;;;;;;;;;5024734;28;20539;-73
2021/09/05 06:30:03;;;;;;;5.63;3.72;;;;;;;;;;5032870;28;20418;-73
2021/09/05 06:32:29;;;;;;;7.30;3.53;;;;;;;;;;5025238;28;20175;-74
2021/09/05 06:34:55;;;;;;;4.80;4.18;;;;;;;;;;5013305;28;20178;-72
2021/09/05 06:37:22;;;;;;;4.53;3.90;;;;;;;;;;5012684;28;20181;-72
2021/09/05 06:39:48;;;;;;;5.07;3.27;;;;;;;;;;5013009;28;20232;-72
2021/09/05 06:42:15;;;;;;;6.97;3.70;;;;;;;;;;5025371;28;20419;-74
2021/09/05 06:44:41;;;;;;;4.87;3.77;;;;;;;;;;5013353;28;20879;-72
2021/09/05 06:47:07;;;;;;;4.17;3.43;;;;;;;;;;5011012;28;20583;-72
2021/09/05 06:49:33;;;;;;;4.70;4.00;;;;;;;;;;5017793;28;20529;-72
2021/09/05 06:51:59;;;;;;;8.03;4.03;;;;;;;;;;5009625;28;20879;-71
2021/09/05 06:54:25;;;;;;;4.83;4.30;;;;;;;;;;5009193;28;20453;-70
2021/09/05 06:56:51;;;;;;;4.33;3.37;;;;;;;;;;5008915;28;20451;-70
2021/09/05 06:59:17;;;;;;;4.30;3.47;;;;;;;;;;5010334;28;20919;-72
2021/09/05 07:01:43;;;;;;;3.80;3.43;;;;;;;;;;5016431;28;20429;-70
2021/09/05 07:04:11;;;;;;;4.93;3.85;;;;;;;;;;5029057;28;20836;-72
2021/09/05 07:06:37;;;;;;;5.13;4.00;;;;;;;;;;5018081;28;20194;-74
2021/09/05 07:09:03;;;;;;;5.03;3.47;;;;;;;;;;5012597;28;21069;-73
2021/09/05 07:11:29;;;;;;;5.70;4.17;;;;;;;;;;5013021;28;20258;-70
2021/09/05 07:13:55;;;;;;;3.60;3.30;;;;;;;;;;5012961;28;20466;-73
2021/09/05 07:16:21;;;;;;;4.67;3.47;;;;;;;;;;5012828;28;20418;-70
2021/09/05 07:18:47;;;;;;;7.03;4.00;;;;;;;;;;5026732;28;20442;-73
2021/09/05 07:21:13;;;;;;;4.40;3.10;;;;;;;;;;5023329;28;20414;-74
2021/09/05 07:23:39;;;;;;;7.00;4.03;;;;;;;;;;5012737;28;20419;-73
2021/09/05 07:26:06;;;;;;;5.53;3.80;;;;;;;;;;5012634;28;20416;-73
2021/09/05 07:28:33;;;;;;;4.00;3.17;;;;;;;;;;5013279;28;20473;-71
2021/09/05 07:31:02;;;;;;;5.97;4.10;;;;;;;;;;5017647;28;20422;-72
2021/09/05 07:33:28;;;;;;;4.70;3.27;;;;;;;;;;5012678;28;20903;-73
2021/09/05 07:35:54;;;;;;;4.53;3.80;;;;;;;;;;5012205;28;20513;-73
2021/09/05 07:38:20;;;;;;;4.60;3.87;;;;;;;;;;5012148;28;20462;-72
2021/09/05 07:40:46;;;;;;;7.73;4.27;;;;;;;;;;5012296;28;20428;-72
2021/09/05 07:43:12;;;;;;;4.73;3.53;;;;;;;;;;5016941;28;20492;-73
2021/09/05 07:45:38;;;;;;;4.73;3.20;;;;;;;;;;5012145;28;20420;-73
2021/09/05 07:48:04;;;;;;;3.87;3.20;;;;;;;;;;5011839;28;20479;-75
2021/09/05 07:50:30;;;;;;;5.30;3.53;;;;;;;;;;5025852;28;20944;-73
2021/09/05 07:52:56;;;;;;;4.73;3.77;;;;;;;;;;5023313;28;20451;-72
2021/09/05 07:55:22;;;;;;;5.70;3.40;;;;;;;;;;5015179;28;20427;-74
2021/09/05 07:57:48;;;;;;;3.43;3.10;;;;;;;;;;5014713;28;20463;-74
2021/09/05 08:00:15;;;;;;;6.03;3.47;;;;;;;;;;5011824;28;20463;-72
2021/09/05 08:02:41;;;;;;;6.00;3.80;;;;;;;;;;5021292;28;20463;-74
2021/09/05 08:05:08;;;;;;;5.17;4.67;;;;;;;;;;5021838;28;20991;-72
2021/09/05 08:07:34;;;;;;;4.33;3.90;;;;;;;;;;5011512;28;20468;-72
2021/09/05 08:10:00;;;;;;;4.10;3.03;;;;;;;;;;5016688;28;20437;-74
2021/09/05 08:12:26;;;;;;;4.10;3.03;;;;;;;;;;5011882;28;20771;-72
2021/09/05 08:14:52;;;;;;;4.00;3.40;;;;;;;;;;5014253;28;20439;-72
2021/09/05 08:17:18;;;;;;;9.50;6.30;;;;;;;;;;5021152;28;20424;-72
2021/09/05 08:19:48;;;;;;;4.40;3.43;;;;;;;;;;5021162;28;20477;-72
2021/09/05 08:22:14;;;;;;;4.10;3.70;;;;;;;;;;5011789;28;20504;-72
2021/09/05 08:24:40;;;;;;;6.50;3.90;;;;;;;;;;5011330;28;21179;-72
2021/09/05 08:27:06;;;;;;;5.50;3.70;;;;;;;;;;5013678;28;21330;-75
2021/09/05 08:29:32;;;;;;;5.60;4.07;;;;;;;;;;5020752;28;20460;-73
2021/09/05 08:31:58;;;;;;;4.70;3.53;;;;;;;;;;5013104;28;20468;-76
2021/09/05 08:34:24;;;;;;;5.30;4.47;;;;;;;;;;5011434;28;20892;-71
2021/09/05 08:36:50;;;;;;;7.57;6.07;;;;;;;;;;5023714;28;20529;-75
2021/09/05 08:39:16;;;;;;;5.53;4.10;;;;;;;;;;5011191;28;20433;-74
2021/09/05 08:41:44;;;;;;;6.30;4.00;;;;;;;;;;5015823;28;20485;-72
2021/09/05 08:44:10;;;;;;;4.93;4.53;;;;;;;;;;5011233;28;20905;-74
2021/09/05 08:46:38;;;;;;;4.30;3.33;;;;;;;;;;5014202;28;20930;-73
2021/09/05 08:49:04;;;;;;;4.53;3.30;;;;;;;;;;5010993;28;20507;-73
2021/09/05 08:51:30;;;;;;;3.70;3.40;;;;;;;;;;5011217;28;20440;-73
2021/09/05 08:53:57;;;;;;;4.00;3.60;;;;;;;;;;5010926;28;20413;-75
2021/09/05 08:56:23;;;;;;;4.90;3.90;;;;;;;;;;5012202;28;20445;-73
2021/09/05 08:58:49;;;;;;;4.70;3.50;;;;;;;;;;5029698;28;20445;-72
2021/09/05 09:01:16;;;;;;;3.93;3.53;;;;;;;;;;5020997;28;20811;-74
2021/09/05 09:03:42;;;;;;;6.40;4.20;;;;;;;;;;5010942;28;20841;-71
2021/09/05 09:06:08;;;;;;;4.03;3.50;;;;;;;;;;5010513;28;20464;-71
2021/09/05 09:08:34;;;;;;;4.80;3.00;;;;;;;;;;5010281;28;20469;-72
2021/09/05 09:11:02;;;;;;;5.10;3.90;;;;;;;;;;5010556;28;20457;-73
2021/09/05 09:13:28;;;;;;;4.10;3.63;;;;;;;;;;5010668;28;20779;-72
2021/09/05 09:15:54;;;;;;;13.77;10.73;;;;;;;;;;5010240;28;20891;-72
2021/09/05 09:18:24;;;;;;;4.20;3.80;;;;;;;;;;5010423;28;20541;-72
2021/09/05 09:20:50;;;;;;;4.63;4.23;;;;;;;;;;5010377;28;20548;-73
2021/09/05 09:23:20;;;;;;;7.10;3.90;;;;;;;;;;5010722;28;20520;-74
2021/09/05 09:25:56;;;;;;;5.27;3.77;;;;;;;;;;5010690;28;20430;-76
2021/09/05 09:28:28;;;;;;;4.37;3.63;;;;;;;;;;5015270;28;20992;-72
2021/09/05 09:30:54;;;;;;;5.10;3.50;;;;;;;;;;5010740;28;20519;-73
2021/09/05 09:33:24;;;;;;;5.83;3.80;;;;;;;;;;5008810;28;20902;-74
2021/09/05 09:35:51;;;;;;;5.07;3.70;;;;;;;;;;5010408;28;20436;-73
2021/09/05 09:38:18;;;;;;;4.87;4.33;;;;;;;;;;5010024;28;20806;-74
2021/09/05 09:40:44;;;;;;;5.50;4.63;;;;;;;;;;5010213;28;20423;-74
2021/09/05 09:43:20;;;;;;;4.17;3.83;;;;;;;;;;5017573;28;20426;-70
2021/09/05 09:45:47;;;;;;;4.20;3.80;;;;;;;;;;5018186;28;20424;-71
2021/09/05 09:48:21;;;;;;;3.53;3.23;;;;;;;;;;5023790;28;20500;-74
2021/09/05 09:50:47;;;;;;;4.43;4.03;;;;;;;;;;5010121;28;20425;-72
2021/09/05 09:53:13;;;;;;;3.93;3.63;;;;;;;;;;5009631;28;20445;-73
2021/09/05 09:55:41;;;;;;;4.27;3.90;;;;;;;;;;5009899;28;20445;-70
2021/09/05 09:58:07;;;;;;;5.00;4.60;;;;;;;;;;5012214;28;20444;-74
2021/09/05 10:00:34;;;;;;;5.10;4.63;;;;;;;;;;5018441;28;20440;-71
2021/09/05 10:03:01;;;;;;;4.10;3.77;;;;;;;;;;5011007;28;20414;-72
2021/09/05 10:05:28;;;;;;;4.83;4.27;;;;;;;;;;5020732;28;20787;-72
2021/09/05 10:07:56;;;;;;;5.07;4.67;;;;;;;;;;5009443;28;20480;-71
2021/09/05 10:10:23;;;;;;;4.13;3.83;;;;;;;;;;5009724;28;20499;-72
2021/09/05 10:12:50;;;;;;;5.70;5.20;;;;;;;;;;5021982;28;20425;-71
2021/09/05 10:15:18;;;;;;;5.43;3.93;;;;;;;;;;5009788;28;20768;-71
2021/09/05 10:17:45;;;;;;;4.67;4.27;;;;;;;;;;5019653;28;20449;-72
2021/09/05 10:20:11;;;;;;;4.50;4.10;;;;;;;;;;5009744;28;20429;-72
2021/09/05 10:22:37;;;;;;;4.70;4.30;;;;;;;;;;5009862;28;20918;-72
2021/09/05 10:25:05;;;;;;;5.47;4.40;;;;;;;;;;5011490;28;20948;-73
2021/09/05 10:27:36;;;;;;;6.03;5.53;;;;;;;;;;5010847;28;20970;-71
2021/09/05 10:30:08;;;;;;;5.07;4.67;;;;;;;;;;5011970;28;20422;-73
2021/09/05 10:32:53;;;;;;;5.23;4.00;;;;;;;;;;5009878;28;20542;-70
2021/09/05 10:35:28;;;;;;;5.13;4.17;;;;;;;;;;5009574;28;20417;-73
2021/09/05 10:38:09;;;;;;;4.40;4.10;;;;;;;;;;5011371;28;21028;-72
2021/09/05 10:40:42;;;;;;;5.00;4.60;;;;;;;;;;5012306;28;20436;-71
2021/09/05 10:43:09;;;;;;;5.13;4.73;;;;;;;;;;5015219;28;20442;-71
2021/09/05 10:45:35;;;;;;;6.83;4.23;;;;;;;;;;5022064;28;20443;-72
2021/09/05 10:48:01;;;;;;;5.00;4.40;;;;;;;;;;5028804;28;20471;-71
2021/09/05 10:50:51;;;;;;;5.17;4.80;;;;;;;;;;5013334;28;20823;-72
2021/09/05 10:53:23;;;;;;;5.00;4.60;;;;;;;;;;5013256;28;20437;-70
2021/09/05 10:56:02;;;;;;;4.90;4.40;;;;;;;;;;5013304;28;20837;-71
2021/09/05 10:58:35;;;;;;;5.30;4.80;;;;;;;;;;5013765;28;20938;-72
2021/09/05 11:01:03;;;;;;;5.10;4.53;;;;;;;;;;5013058;28;20906;-70
2021/09/05 11:03:29;;;;;;;4.67;4.27;;;;;;;;;;5014415;28;20977;-71
2021/09/05 11:06:27;;;;;;;5.20;4.70;;;;;;;;;;5012947;28;20495;-74
2021/09/05 11:08:53;;;;;;;5.00;4.60;;;;;;;;;;5025304;28;20504;-70
2021/09/05 11:11:19;;;;;;;6.10;5.50;;;;;;;;;;5012944;28;20449;-69
2021/09/05 11:13:49;;;;;;;5.40;4.80;;;;;;;;;;5013132;28;20905;-72
2021/09/05 11:16:16;;;;;;;5.00;4.60;;;;;;;;;;5012618;28;20918;-72
2021/09/05 11:18:42;;;;;;;4.93;4.53;;;;;;;;;;5019616;28;20456;-72
2021/09/05 11:21:21;;;;;;;6.20;5.60;;;;;;;;;;5012726;28;20425;-72
2021/09/05 11:23:48;;;;;;;6.20;5.60;;;;;;;;;;5012955;28;20427;-72
2021/09/05 11:26:14;;;;;;;6.30;4.93;;;;;;;;;;5012996;28;20440;-71
2021/09/05 11:28:40;;;;;;;6.30;5.70;;;;;;;;;;5014434;28;20465;-73
2021/09/05 11:31:06;;;;;;;6.03;5.53;;;;;;;;;;5017670;28;20469;-70
2021/09/05 11:33:32;;;;;;;5.70;4.90;;;;;;;;;;5012612;28;20413;-74
2021/09/05 11:35:58;;;;;;;5.30;4.90;;;;;;;;;;5021953;28;20435;-73
2021/09/05 11:38:28;;;;;;;7.10;5.80;;;;;;;;;;5018726;28;20938;-71
2021/09/05 11:40:54;;;;;;;5.83;5.23;;;;;;;;;;5012418;28;20479;-74
2021/09/05 11:43:29;;;;;;;5.80;4.80;;;;;;;;;;5019400;28;20927;-72
2021/09/05 11:45:55;;;;;;;8.43;7.70;;;;;;;;;;5012176;28;20424;-70
2021/09/05 11:48:26;;;;;;;8.60;7.80;;;;;;;;;;5011550;28;20674;-74
2021/09/05 11:50:52;;;;;;;5.73;4.83;;;;;;;;;;5011461;28;20469;-74
2021/09/05 11:53:19;;;;;;;5.47;5.07;;;;;;;;;;5011925;28;20469;-72
2021/09/05 11:55:51;;;;;;;4.63;4.23;;;;;;;;;;5017601;28;21133;-72
2021/09/05 11:58:17;;;;;;;5.10;4.70;;;;;;;;;;5011957;28;20461;-69
2021/09/05 12:00:43;;;;;;;5.63;5.23;;;;;;;;;;5011673;28;20430;-73
2021/09/05 12:03:12;;;;;;;6.70;5.33;;;;;;;;;;5013338;28;20431;-74
2021/09/05 12:05:38;;;;;;;6.47;6.03;;;;;;;;;;5022235;28;20845;-72
2021/09/05 12:08:05;;;;;;;4.60;4.27;;;;;;;;;;5011526;28;20500;-74
2021/09/05 12:10:31;;;;;;;4.77;4.37;;;;;;;;;;5011739;28;20425;-73
2021/09/05 12:12:57;;;;;;;6.13;5.63;;;;;;;;;;5011753;28;20414;-69
2021/09/05 12:15:23;;;;;;;4.67;4.33;;;;;;;;;;5011858;28;20457;-74
2021/09/05 12:17:50;;;;;;;9.57;8.77;;;;;;;;;;5011200;28;20456;-74
2021/09/05 12:20:17;;;;;;;6.33;5.73;;;;;;;;;;5011993;28;20814;-76
2021/09/05 12:22:57;;;;;;;5.73;5.33;;;;;;;;;;5011592;28;20465;-70
2021/09/05 12:25:31;;;;;;;5.37;5.00;;;;;;;;;;5011807;28;20487;-71
2021/09/05 12:28:00;;;;;;;5.90;5.10;;;;;;;;;;5011177;28;20834;-72
2021/09/05 12:30:31;;;;;;;5.00;4.60;;;;;;;;;;5015133;28;20429;-74
2021/09/05 12:33:03;;;;;;;4.97;4.50;;;;;;;;;;5018925;28;20805;-73
2021/09/05 12:35:29;;;;;;;5.17;4.77;;;;;;;;;;5013162;28;20433;-75
2021/09/05 12:38:05;;;;;;;5.77;5.27;;;;;;;;;;5011098;28;20433;-74
2021/09/05 12:40:35;;;;;;;4.93;4.60;;;;;;;;;;5011943;28;20805;-75
2021/09/05 12:43:01;;;;;;;5.73;4.50;;;;;;;;;;5011298;28;20422;-75
2021/09/05 12:45:27;;;;;;;5.00;4.60;;;;;;;;;;5011331;28;20433;-75
2021/09/05 12:47:53;;;;;;;6.53;4.30;;;;;;;;;;5011018;28;20517;-72
2021/09/05 12:50:20;;;;;;;4.37;4.07;;;;;;;;;;5010659;28;20512;-74
2021/09/05 12:52:46;;;;;;;4.47;4.07;;;;;;;;;;5011081;28;20425;-73
2021/09/05 12:55:12;;;;;;;4.70;4.30;;;;;;;;;;5012091;28;20603;-74
2021/09/05 12:57:38;;;;;;;4.63;4.23;;;;;;;;;;5020509;28;20460;-74
2021/09/05 13:00:05;;;;;;;5.43;4.77;;;;;;;;;;5010998;28;20433;-74
2021/09/05 13:02:31;;;;;;;4.40;4.00;;;;;;;;;;5020906;28;20515;-73
2021/09/05 13:04:57;;;;;;;4.33;3.93;;;;;;;;;;5029836;28;20981;-74
2021/09/05 13:07:23;;;;;;;11.50;10.30;;;;;;;;;;5015659;28;20469;-74
2021/09/05 13:09:49;;;;;;;4.50;4.10;;;;;;;;;;5025169;28;20424;-74
2021/09/05 13:12:15;;;;;;;8.03;5.73;;;;;;;;;;5018168;28;20417;-74
2021/09/05 13:14:41;;;;;;;5.73;5.23;;;;;;;;;;5010871;28;20799;-75
2021/09/05 13:17:08;;;;;;;4.63;4.23;;;;;;;;;;5010287;28;20945;-72
2021/09/05 13:19:34;;;;;;;4.57;4.17;;;;;;;;;;5010553;28;20921;-74
2021/09/05 13:22:00;;;;;;;4.57;4.10;;;;;;;;;;5010485;28;20425;-74
2021/09/05 13:24:26;;;;;;;5.13;4.73;;;;;;;;;;5010507;28;20929;-74
2021/09/05 13:26:52;;;;;;;4.13;3.83;;;;;;;;;;5010202;28;20417;-72
2021/09/05 13:29:18;;;;;;;5.00;4.00;;;;;;;;;;5011755;28;20473;-73
2021/09/05 13:31:44;;;;;;;4.93;4.20;;;;;;;;;;5010710;28;20472;-74
2021/09/05 13:34:10;;;;;;;4.40;4.00;;;;;;;;;;5010287;28;20409;-74
2021/09/05 13:36:36;;;;;;;4.80;3.77;;;;;;;;;;5013972;28;20559;-73
2021/09/05 13:39:02;;;;;;;4.77;4.23;;;;;;;;;;5010523;28;20811;-73
2021/09/05 13:41:28;;;;;;;4.70;4.30;;;;;;;;;;5010320;28;20424;-74
2021/09/05 13:43:54;;;;;;;6.40;4.67;;;;;;;;;;5014780;28;20430;-74
2021/09/05 13:46:20;;;;;;;4.00;3.60;;;;;;;;;;5010256;28;20425;-73
2021/09/05 13:48:46;;;;;;;5.00;4.20;;;;;;;;;;5009924;28;20830;-73
2021/09/05 13:51:12;;;;;;;6.50;4.10;;;;;;;;;;5010012;28;20426;-74
2021/09/05 13:53:38;;;;;;;5.00;4.20;;;;;;;;;;5015531;28;20781;-72
2021/09/05 13:56:04;;;;;;;4.63;4.20;;;;;;;;;;5025223;28;20443;-73
2021/09/05 13:58:30;;;;;;;5.70;4.50;;;;;;;;;;5013719;28;21081;-74
2021/09/05 14:00:56;;;;;;;5.07;4.20;;;;;;;;;;5018678;28;20488;-71
2021/09/05 14:03:23;;;;;;;4.57;4.00;;;;;;;;;;5012160;28;20473;-72
2021/09/05 14:05:49;;;;;;;6.10;3.67;;;;;;;;;;5019707;28;20440;-73
2021/09/05 14:08:16;;;;;;;5.60;4.43;;;;;;;;;;5010164;28;20469;-74
2021/09/05 14:10:42;;;;;;;5.20;4.40;;;;;;;;;;5021611;28;20432;-74
2021/09/05 14:13:08;;;;;;;5.53;4.47;;;;;;;;;;5009783;28;20803;-74
2021/09/05 14:15:34;;;;;;;4.60;4.20;;;;;;;;;;5009652;28;20433;-74
2021/09/05 14:18:00;;;;;;;4.70;4.30;;;;;;;;;;5009308;28;20441;-74
2021/09/05 14:20:26;;;;;;;6.10;4.90;;;;;;;;;;5009797;28;20429;-74
2021/09/05 14:22:52;;;;;;;5.50;4.90;;;;;;;;;;5009639;28;20437;-75
2021/09/05 14:25:18;;;;;;;5.50;4.87;;;;;;;;;;5009914;28;21249;-73
2021/09/05 14:28:06;;;;;;;5.93;5.27;;;;;;;;;;5010283;28;20501;-74
2021/09/05 14:34:07;;;;;;;6.67;4.63;;;;;;;;;;5009877;28;20422;-74
2021/09/05 14:47:54;;;;;;;4.87;4.43;;;;;;;;;;5009540;28;20527;-74
2021/09/05 14:55:01;;;;;;;6.37;5.73;;;;;;;;;;5015791;28;20486;-74
2021/09/05 14:57:27;;;;;;;8.10;7.00;;;;;;;;;;5009277;28;20406;-75
2021/09/05 14:59:56;;;;;;;8.10;6.33;;;;;;;;;;5009786;28;20421;-75